sensor_id;sensor_type;location;lat;lon;timestamp;temperature;humidity
3678;DHT22;1855;50.934;6.958;2023-02-19T00:00:56;9.80;99.90
3678;DHT22;1855;50.934;6.958;2023-02-19T00:03:23;9.80;99.90
3678;DHT22;1855;50.934;6.958;2023-02-19T00:05:50;9.80;99.90
3678;DHT22;1855;50.934;6.958;2023-02-19T00:08:16;9.80;99.90
3678;DHT22;1855;50.934;6.958;2023-02-19T00:10:43;9.80;99.90
3678;DHT22;1855;50.934;6.958;2023-02-19T00:13:10;9.80;99.90
3678;DHT22;1855;50.934;6.958;2023-02-19T00:15:38;9.90;99.90
3678;DHT22;1855;50.934;6.958;2023-02-19T00:18:05;9.80;99.90
3678;DHT22;1855;50.934;6.958;2023-02-19T00:20:32;9.80;99.90
3678;DHT22;1855;50.934;6.958;2023-02-19T00:22:59;9.80;99.90
3678;DHT22;1855;50.934;6.958;2023-02-19T00:25:25;9.80;99.90
3678;DHT22;1855;50.934;6.958;2023-02-19T00:27:52;9.70;99.90
3678;DHT22;1855;50.934;6.958;2023-02-19T00:30:19;9.70;99.90
3678;DHT22;1855;50.934;6.958;2023-02-19T00:32:50;9.70;99.90
3678;DHT22;1855;50.934;6.958;2023-02-19T00:35:17;9.70;99.90
3678;DHT22;1855;50.934;6.958;2023-02-19T00:37:43;9.80;99.90
3678;DHT22;1855;50.934;6.958;2023-02-19T00:40:10;9.70;99.90
3678;DHT22;1855;50.934;6.958;2023-02-19T00:42:37;9.70;99.90
3678;DHT22;1855;50.934;6.958;2023-02-19T00:45:04;9.70;99.90
3678;DHT22;1855;50.934;6.958;2023-02-19T00:47:31;9.70;99.90
3678;DHT22;1855;50.934;6.958;2023-02-19T00:49:59;9.70;99.90
3678;DHT22;1855;50.934;6.958;2023-02-19T00:52:26;9.70;99.90
3678;DHT22;1855;50.934;6.958;2023-02-19T00:54:53;9.70;99.90
3678;DHT22;1855;50.934;6.958;2023-02-19T00:57:20;9.70;99.90
3678;DHT22;1855;50.934;6.958;2023-02-19T00:59:46;9.70;99.90
3678;DHT22;1855;50.934;6.958;2023-02-19T01:02:13;9.70;99.90
3678;DHT22;1855;50.934;6.958;2023-02-19T01:04:40;9.80;99.90
3678;DHT22;1855;50.934;6.958;2023-02-19T01:07:08;9.70;99.90
3678;DHT22;1855;50.934;6.958;2023-02-19T01:09:35;9.70;99.90
3678;DHT22;1855;50.934;6.958;2023-02-19T01:12:03;9.80;99.90
3678;DHT22;1855;50.934;6.958;2023-02-19T01:14:29;9.80;99.90
3678;DHT22;1855;50.934;6.958;2023-02-19T01:16:56;9.80;99.90
3678;DHT22;1855;50.934;6.958;2023-02-19T01:19:24;9.70;99.90
3678;DHT22;1855;50.934;6.958;2023-02-19T01:21:50;9.80;99.90
3678;DHT22;1855;50.934;6.958;2023-02-19T01:24:19;9.80;99.90
3678;DHT22;1855;50.934;6.958;2023-02-19T01:26:45;9.80;99.90
3678;DHT22;1855;50.934;6.958;2023-02-19T01:29:12;9.80;99.90
3678;DHT22;1855;50.934;6.958;2023-02-19T01:31:39;9.80;99.90
3678;DHT22;1855;50.934;6.958;2023-02-19T01:34:09;9.80;99.90
3678;DHT22;1855;50.934;6.958;2023-02-19T01:36:36;9.80;99.90
3678;DHT22;1855;50.934;6.958;2023-02-19T01:39:04;9.80;99.90
3678;DHT22;1855;50.934;6.958;2023-02-19T01:41:35;9.90;99.90
3678;DHT22;1855;50.934;6.958;2023-02-19T01:44:05;9.90;99.90
3678;DHT22;1855;50.934;6.958;2023-02-19T01:46:34;9.90;99.90
3678;DHT22;1855;50.934;6.958;2023-02-19T01:49:04;9.90;99.90
3678;DHT22;1855;50.934;6.958;2023-02-19T01:51:32;9.90;99.90
3678;DHT22;1855;50.934;6.958;2023-02-19T01:54:02;9.90;99.90
3678;DHT22;1855;50.934;6.958;2023-02-19T01:56:30;10.00;99.90
3678;DHT22;1855;50.934;6.958;2023-02-19T01:59:00;10.00;99.90
3678;DHT22;1855;50.934;6.958;2023-02-19T02:01:27;10.00;99.90
3678;DHT22;1855;50.934;6.958;2023-02-19T02:03:54;10.10;99.90
3678;DHT22;1855;50.934;6.958;2023-02-19T02:06:22;10.10;99.90
3678;DHT22;1855;50.934;6.958;2023-02-19T02:08:51;10.10;99.90
3678;DHT22;1855;50.934;6.958;2023-02-19T02:11:37;10.10;99.90
3678;DHT22;1855;50.934;6.958;2023-02-19T02:14:07;10.10;99.90
3678;DHT22;1855;50.934;6.958;2023-02-19T02:16:42;10.10;99.90
3678;DHT22;1855;50.934;6.958;2023-02-19T02:19:25;10.20;99.90
3678;DHT22;1855;50.934;6.958;2023-02-19T02:22:06;10.20;99.90
3678;DHT22;1855;50.934;6.958;2023-02-19T02:25:20;10.20;99.90
3678;DHT22;1855;50.934;6.958;2023-02-19T02:27:57;10.20;99.90
3678;DHT22;1855;50.934;6.958;2023-02-19T02:30:43;10.20;99.90
3678;DHT22;1855;50.934;6.958;2023-02-19T02:33:20;10.20;99.90
3678;DHT22;1855;50.934;6.958;2023-02-19T02:35:55;10.20;99.90
3678;DHT22;1855;50.934;6.958;2023-02-19T02:38:25;10.20;99.90
3678;DHT22;1855;50.934;6.958;2023-02-19T02:40:53;10.20;99.90
3678;DHT22;1855;50.934;6.958;2023-02-19T02:43:20;10.00;99.90
3678;DHT22;1855;50.934;6.958;2023-02-19T02:45:49;9.80;99.90
3678;DHT22;1855;50.934;6.958;2023-02-19T02:48:23;9.70;99.90
3678;DHT22;1855;50.934;6.958;2023-02-19T02:50:55;9.70;99.90
3678;DHT22;1855;50.934;6.958;2023-02-19T02:53:27;9.70;99.90
3678;DHT22;1855;50.934;6.958;2023-02-19T02:56:13;9.60;99.90
3678;DHT22;1855;50.934;6.958;2023-02-19T02:58:41;9.60;99.90
3678;DHT22;1855;50.934;6.958;2023-02-19T03:01:12;9.60;99.90
3678;DHT22;1855;50.934;6.958;2023-02-19T03:04:01;9.70;99.90
3678;DHT22;1855;50.934;6.958;2023-02-19T03:06:31;9.60;99.90
3678;DHT22;1855;50.934;6.958;2023-02-19T03:09:04;9.60;99.90
3678;DHT22;1855;50.934;6.958;2023-02-19T03:11:34;9.60;99.90
3678;DHT22;1855;50.934;6.958;2023-02-19T03:14:21;9.70;99.90
3678;DHT22;1855;50.934;6.958;2023-02-19T03:17:11;9.70;99.90
3678;DHT22;1855;50.934;6.958;2023-02-19T03:20:00;9.70;99.90
3678;DHT22;1855;50.934;6.958;2023-02-19T03:22:30;9.70;99.90
3678;DHT22;1855;50.934;6.958;2023-02-19T03:25:01;9.70;99.90
3678;DHT22;1855;50.934;6.958;2023-02-19T03:27:48;9.70;99.90
3678;DHT22;1855;50.934;6.958;2023-02-19T03:30:18;9.70;99.90
3678;DHT22;1855;50.934;6.958;2023-02-19T03:32:49;9.70;99.90
3678;DHT22;1855;50.934;6.958;2023-02-19T03:35:19;9.70;99.90
3678;DHT22;1855;50.934;6.958;2023-02-19T03:37:53;9.70;99.90
3678;DHT22;1855;50.934;6.958;2023-02-19T03:40:26;9.70;99.90
3678;DHT22;1855;50.934;6.958;2023-02-19T03:43:00;9.70;99.90
3678;DHT22;1855;50.934;6.958;2023-02-19T03:45:35;9.80;99.90
3678;DHT22;1855;50.934;6.958;2023-02-19T03:48:17;9.80;99.90
3678;DHT22;1855;50.934;6.958;2023-02-19T03:50:49;9.80;99.90
3678;DHT22;1855;50.934;6.958;2023-02-19T03:53:22;9.80;99.90
3678;DHT22;1855;50.934;6.958;2023-02-19T03:55:58;9.80;99.90
3678;DHT22;1855;50.934;6.958;2023-02-19T03:58:33;9.70;99.90
3678;DHT22;1855;50.934;6.958;2023-02-19T04:01:05;9.80;99.90
3678;DHT22;1855;50.934;6.958;2023-02-19T04:03:39;9.80;99.90
3678;DHT22;1855;50.934;6.958;2023-02-19T04:06:10;9.80;99.90
3678;DHT22;1855;50.934;6.958;2023-02-19T04:08:39;9.80;99.90
3678;DHT22;1855;50.934;6.958;2023-02-19T04:11:08;9.90;99.90
3678;DHT22;1855;50.934;6.958;2023-02-19T04:13:39;9.90;99.90
3678;DHT22;1855;50.934;6.958;2023-02-19T04:16:10;9.90;99.90
3678;DHT22;1855;50.934;6.958;2023-02-19T04:18:40;9.90;99.90
3678;DHT22;1855;50.934;6.958;2023-02-19T04:21:09;9.80;99.90
3678;DHT22;1855;50.934;6.958;2023-02-19T04:23:41;9.80;99.90
3678;DHT22;1855;50.934;6.958;2023-02-19T04:26:10;9.70;99.90
3678;DHT22;1855;50.934;6.958;2023-02-19T04:28:38;9.60;99.90
3678;DHT22;1855;50.934;6.958;2023-02-19T04:31:05;9.60;99.90
3678;DHT22;1855;50.934;6.958;2023-02-19T04:33:32;9.60;99.90
3678;DHT22;1855;50.934;6.958;2023-02-19T04:36:00;9.60;99.90
3678;DHT22;1855;50.934;6.958;2023-02-19T04:38:26;9.60;99.90
3678;DHT22;1855;50.934;6.958;2023-02-19T04:40:53;9.60;99.90
3678;DHT22;1855;50.934;6.958;2023-02-19T04:43:20;9.50;99.90
3678;DHT22;1855;50.934;6.958;2023-02-19T04:45:47;9.50;99.90
3678;DHT22;1855;50.934;6.958;2023-02-19T04:48:13;9.40;99.90
3678;DHT22;1855;50.934;6.958;2023-02-19T04:50:40;9.40;99.90
3678;DHT22;1855;50.934;6.958;2023-02-19T04:53:08;9.30;99.90
3678;DHT22;1855;50.934;6.958;2023-02-19T04:55:36;9.20;99.90
3678;DHT22;1855;50.934;6.958;2023-02-19T04:58:03;9.20;99.90
3678;DHT22;1855;50.934;6.958;2023-02-19T05:00:30;9.20;99.90
3678;DHT22;1855;50.934;6.958;2023-02-19T05:02:58;9.20;99.90
3678;DHT22;1855;50.934;6.958;2023-02-19T05:05:25;9.10;99.90
3678;DHT22;1855;50.934;6.958;2023-02-19T05:07:51;9.10;99.90
3678;DHT22;1855;50.934;6.958;2023-02-19T05:10:20;9.10;99.90
3678;DHT22;1855;50.934;6.958;2023-02-19T05:12:46;9.10;99.90
3678;DHT22;1855;50.934;6.958;2023-02-19T05:15:13;9.10;99.90
3678;DHT22;1855;50.934;6.958;2023-02-19T05:17:40;9.10;99.90
3678;DHT22;1855;50.934;6.958;2023-02-19T05:20:07;9.10;99.90
3678;DHT22;1855;50.934;6.958;2023-02-19T05:22:34;9.10;99.90
3678;DHT22;1855;50.934;6.958;2023-02-19T05:25:01;9.00;99.90
3678;DHT22;1855;50.934;6.958;2023-02-19T05:27:31;9.10;99.90
3678;DHT22;1855;50.934;6.958;2023-02-19T05:29:57;9.00;99.90
3678;DHT22;1855;50.934;6.958;2023-02-19T05:32:24;9.00;99.90
3678;DHT22;1855;50.934;6.958;2023-02-19T05:34:51;9.00;99.90
3678;DHT22;1855;50.934;6.958;2023-02-19T05:37:18;9.00;99.90
3678;DHT22;1855;50.934;6.958;2023-02-19T05:39:44;9.00;99.90
3678;DHT22;1855;50.934;6.958;2023-02-19T05:42:12;9.00;99.90
3678;DHT22;1855;50.934;6.958;2023-02-19T05:44:41;9.00;99.90
3678;DHT22;1855;50.934;6.958;2023-02-19T05:47:08;9.00;99.90
3678;DHT22;1855;50.934;6.958;2023-02-19T05:49:35;9.00;99.90
3678;DHT22;1855;50.934;6.958;2023-02-19T05:52:02;9.00;99.90
3678;DHT22;1855;50.934;6.958;2023-02-19T05:54:29;9.00;99.90
3678;DHT22;1855;50.934;6.958;2023-02-19T05:56:56;8.90;99.90
3678;DHT22;1855;50.934;6.958;2023-02-19T05:59:24;8.90;99.90
3678;DHT22;1855;50.934;6.958;2023-02-19T06:01:53;8.90;99.90
3678;DHT22;1855;50.934;6.958;2023-02-19T06:04:21;8.90;99.90
3678;DHT22;1855;50.934;6.958;2023-02-19T06:06:48;8.90;99.90
3678;DHT22;1855;50.934;6.958;2023-02-19T06:09:15;8.90;99.90
3678;DHT22;1855;50.934;6.958;2023-02-19T06:11:42;8.90;99.90
3678;DHT22;1855;50.934;6.958;2023-02-19T06:14:10;8.90;99.90
3678;DHT22;1855;50.934;6.958;2023-02-19T06:16:37;8.90;99.90
3678;DHT22;1855;50.934;6.958;2023-02-19T06:19:05;8.90;99.90
3678;DHT22;1855;50.934;6.958;2023-02-19T06:21:32;8.90;99.90
3678;DHT22;1855;50.934;6.958;2023-02-19T06:24:03;8.90;99.90
3678;DHT22;1855;50.934;6.958;2023-02-19T06:26:30;8.90;99.90
3678;DHT22;1855;50.934;6.958;2023-02-19T06:28:57;8.80;99.90
3678;DHT22;1855;50.934;6.958;2023-02-19T06:31:24;8.80;99.90
3678;DHT22;1855;50.934;6.958;2023-02-19T06:33:51;8.80;99.90
3678;DHT22;1855;50.934;6.958;2023-02-19T06:36:20;8.80;99.90
3678;DHT22;1855;50.934;6.958;2023-02-19T06:38:46;8.80;99.90
3678;DHT22;1855;50.934;6.958;2023-02-19T06:41:14;8.70;99.90
3678;DHT22;1855;50.934;6.958;2023-02-19T06:43:41;8.80;99.90
3678;DHT22;1855;50.934;6.958;2023-02-19T06:46:09;8.70;99.90
3678;DHT22;1855;50.934;6.958;2023-02-19T06:48:38;8.80;99.90
3678;DHT22;1855;50.934;6.958;2023-02-19T06:51:05;8.80;99.90
3678;DHT22;1855;50.934;6.958;2023-02-19T06:53:33;8.80;99.90
3678;DHT22;1855;50.934;6.958;2023-02-19T06:56:02;8.80;99.90
3678;DHT22;1855;50.934;6.958;2023-02-19T06:58:29;8.80;99.90
3678;DHT22;1855;50.934;6.958;2023-02-19T07:00:56;8.70;99.90
3678;DHT22;1855;50.934;6.958;2023-02-19T07:03:23;8.70;99.90
3678;DHT22;1855;50.934;6.958;2023-02-19T07:05:52;8.70;99.90
3678;DHT22;1855;50.934;6.958;2023-02-19T07:08:19;8.70;99.90
3678;DHT22;1855;50.934;6.958;2023-02-19T07:10:53;8.70;99.90
3678;DHT22;1855;50.934;6.958;2023-02-19T07:13:20;8.70;99.90
3678;DHT22;1855;50.934;6.958;2023-02-19T07:15:47;8.70;99.90
3678;DHT22;1855;50.934;6.958;2023-02-19T07:18:14;8.70;99.90
3678;DHT22;1855;50.934;6.958;2023-02-19T07:20:41;8.80;99.90
3678;DHT22;1855;50.934;6.958;2023-02-19T07:23:07;8.70;99.90
3678;DHT22;1855;50.934;6.958;2023-02-19T07:25:36;8.70;99.90
3678;DHT22;1855;50.934;6.958;2023-02-19T07:28:04;8.70;99.90
3678;DHT22;1855;50.934;6.958;2023-02-19T07:30:31;8.70;99.90
3678;DHT22;1855;50.934;6.958;2023-02-19T07:32:58;8.70;99.90
3678;DHT22;1855;50.934;6.958;2023-02-19T07:35:25;8.80;99.90
3678;DHT22;1855;50.934;6.958;2023-02-19T07:37:51;8.90;99.90
3678;DHT22;1855;50.934;6.958;2023-02-19T07:40:18;8.80;99.90
3678;DHT22;1855;50.934;6.958;2023-02-19T07:42:45;8.70;99.90
3678;DHT22;1855;50.934;6.958;2023-02-19T07:45:13;8.70;99.90
3678;DHT22;1855;50.934;6.958;2023-02-19T07:47:40;8.70;99.90
3678;DHT22;1855;50.934;6.958;2023-02-19T07:50:07;8.70;99.90
3678;DHT22;1855;50.934;6.958;2023-02-19T07:52:34;8.70;99.90
3678;DHT22;1855;50.934;6.958;2023-02-19T07:55:01;8.70;99.90
3678;DHT22;1855;50.934;6.958;2023-02-19T07:57:28;8.80;99.90
3678;DHT22;1855;50.934;6.958;2023-02-19T07:59:56;8.80;99.90
3678;DHT22;1855;50.934;6.958;2023-02-19T08:02:24;8.90;99.90
3678;DHT22;1855;50.934;6.958;2023-02-19T08:05:08;8.90;99.90
3678;DHT22;1855;50.934;6.958;2023-02-19T08:07:36;9.00;99.90
3678;DHT22;1855;50.934;6.958;2023-02-19T08:10:04;9.10;99.90
3678;DHT22;1855;50.934;6.958;2023-02-19T08:12:54;9.10;99.90
3678;DHT22;1855;50.934;6.958;2023-02-19T08:15:39;9.10;99.90
3678;DHT22;1855;50.934;6.958;2023-02-19T08:18:08;9.10;99.90
3678;DHT22;1855;50.934;6.958;2023-02-19T08:20:35;9.00;99.90
3678;DHT22;1855;50.934;6.958;2023-02-19T08:23:02;9.00;99.90
3678;DHT22;1855;50.934;6.958;2023-02-19T08:25:29;8.90;99.90
3678;DHT22;1855;50.934;6.958;2023-02-19T08:27:56;8.90;99.90
3678;DHT22;1855;50.934;6.958;2023-02-19T08:30:25;8.90;99.90
3678;DHT22;1855;50.934;6.958;2023-02-19T08:32:52;8.90;99.90
3678;DHT22;1855;50.934;6.958;2023-02-19T08:35:21;8.90;99.90
3678;DHT22;1855;50.934;6.958;2023-02-19T08:37:47;9.00;99.90
3678;DHT22;1855;50.934;6.958;2023-02-19T08:40:14;9.00;99.90
3678;DHT22;1855;50.934;6.958;2023-02-19T08:42:41;9.00;99.90
3678;DHT22;1855;50.934;6.958;2023-02-19T08:45:08;9.00;99.90
3678;DHT22;1855;50.934;6.958;2023-02-19T08:47:35;9.00;99.90
3678;DHT22;1855;50.934;6.958;2023-02-19T08:50:03;8.90;99.90
3678;DHT22;1855;50.934;6.958;2023-02-19T08:52:32;8.90;99.90
3678;DHT22;1855;50.934;6.958;2023-02-19T08:54:59;8.90;99.90
3678;DHT22;1855;50.934;6.958;2023-02-19T08:57:27;8.90;99.90
3678;DHT22;1855;50.934;6.958;2023-02-19T08:59:54;9.00;99.90
3678;DHT22;1855;50.934;6.958;2023-02-19T09:02:22;9.00;99.90
3678;DHT22;1855;50.934;6.958;2023-02-19T09:04:49;9.10;99.90
3678;DHT22;1855;50.934;6.958;2023-02-19T09:07:16;9.20;99.90
3678;DHT22;1855;50.934;6.958;2023-02-19T09:09:44;9.30;99.90
3678;DHT22;1855;50.934;6.958;2023-02-19T09:12:11;9.50;99.90
3678;DHT22;1855;50.934;6.958;2023-02-19T09:14:38;9.60;99.90
3678;DHT22;1855;50.934;6.958;2023-02-19T09:17:06;9.60;99.90
3678;DHT22;1855;50.934;6.958;2023-02-19T09:19:34;9.70;99.90
3678;DHT22;1855;50.934;6.958;2023-02-19T09:22:01;9.70;99.90
3678;DHT22;1855;50.934;6.958;2023-02-19T09:24:28;9.80;99.90
3678;DHT22;1855;50.934;6.958;2023-02-19T09:26:57;9.90;99.90
3678;DHT22;1855;50.934;6.958;2023-02-19T09:29:26;9.90;99.90
3678;DHT22;1855;50.934;6.958;2023-02-19T09:31:55;9.90;99.90
3678;DHT22;1855;50.934;6.958;2023-02-19T09:34:22;9.90;99.90
3678;DHT22;1855;50.934;6.958;2023-02-19T09:36:50;9.80;99.90
3678;DHT22;1855;50.934;6.958;2023-02-19T09:39:17;9.70;99.90
3678;DHT22;1855;50.934;6.958;2023-02-19T09:41:46;9.70;99.90
3678;DHT22;1855;50.934;6.958;2023-02-19T09:44:19;9.60;99.90
3678;DHT22;1855;50.934;6.958;2023-02-19T09:46:51;9.70;99.90
3678;DHT22;1855;50.934;6.958;2023-02-19T09:49:21;9.70;99.90
3678;DHT22;1855;50.934;6.958;2023-02-19T09:54:28;9.70;99.90
3678;DHT22;1855;50.934;6.958;2023-02-19T09:56:56;9.70;99.90
3678;DHT22;1855;50.934;6.958;2023-02-19T09:59:29;9.80;99.90
3678;DHT22;1855;50.934;6.958;2023-02-19T10:02:02;9.80;99.90
3678;DHT22;1855;50.934;6.958;2023-02-19T10:04:30;9.90;99.90
3678;DHT22;1855;50.934;6.958;2023-02-19T10:06:57;9.90;99.90
3678;DHT22;1855;50.934;6.958;2023-02-19T10:09:28;9.70;99.90
3678;DHT22;1855;50.934;6.958;2023-02-19T10:11:57;9.50;99.90
3678;DHT22;1855;50.934;6.958;2023-02-19T10:14:29;9.30;99.90
3678;DHT22;1855;50.934;6.958;2023-02-19T10:17:02;9.20;99.90
3678;DHT22;1855;50.934;6.958;2023-02-19T10:19:29;9.20;99.90
3678;DHT22;1855;50.934;6.958;2023-02-19T10:21:57;9.30;99.90
3678;DHT22;1855;50.934;6.958;2023-02-19T10:24:26;9.40;99.90
3678;DHT22;1855;50.934;6.958;2023-02-19T10:26:54;9.50;99.90
3678;DHT22;1855;50.934;6.958;2023-02-19T10:29:21;9.50;99.90
3678;DHT22;1855;50.934;6.958;2023-02-19T10:32:12;9.60;99.90
3678;DHT22;1855;50.934;6.958;2023-02-19T10:34:41;9.60;99.90
3678;DHT22;1855;50.934;6.958;2023-02-19T10:37:11;9.60;99.90
3678;DHT22;1855;50.934;6.958;2023-02-19T10:39:41;9.50;99.90
3678;DHT22;1855;50.934;6.958;2023-02-19T10:42:20;9.50;99.90
3678;DHT22;1855;50.934;6.958;2023-02-19T10:44:51;9.50;99.90
3678;DHT22;1855;50.934;6.958;2023-02-19T10:47:22;9.40;99.90
3678;DHT22;1855;50.934;6.958;2023-02-19T10:49:50;9.40;99.90
3678;DHT22;1855;50.934;6.958;2023-02-19T10:52:20;9.30;99.90
3678;DHT22;1855;50.934;6.958;2023-02-19T10:54:49;9.30;99.90
3678;DHT22;1855;50.934;6.958;2023-02-19T10:57:26;9.30;99.90
3678;DHT22;1855;50.934;6.958;2023-02-19T10:59:58;9.30;99.90
3678;DHT22;1855;50.934;6.958;2023-02-19T11:02:29;9.30;99.90
3678;DHT22;1855;50.934;6.958;2023-02-19T11:05:13;9.40;99.90
3678;DHT22;1855;50.934;6.958;2023-02-19T11:07:43;9.40;99.90
3678;DHT22;1855;50.934;6.958;2023-02-19T11:10:20;9.40;99.90
3678;DHT22;1855;50.934;6.958;2023-02-19T11:12:50;9.50;99.90
3678;DHT22;1855;50.934;6.958;2023-02-19T11:15:20;9.60;99.90
3678;DHT22;1855;50.934;6.958;2023-02-19T11:17:56;9.70;99.90
3678;DHT22;1855;50.934;6.958;2023-02-19T11:20:23;9.90;99.90
3678;DHT22;1855;50.934;6.958;2023-02-19T11:22:50;9.90;99.90
3678;DHT22;1855;50.934;6.958;2023-02-19T11:25:19;9.90;99.90
3678;DHT22;1855;50.934;6.958;2023-02-19T11:27:57;10.00;99.90
3678;DHT22;1855;50.934;6.958;2023-02-19T11:30:36;10.10;99.90
3678;DHT22;1855;50.934;6.958;2023-02-19T11:33:20;10.30;99.90
3678;DHT22;1855;50.934;6.958;2023-02-19T11:35:49;10.50;99.90
3678;DHT22;1855;50.934;6.958;2023-02-19T11:38:17;10.70;99.90
3678;DHT22;1855;50.934;6.958;2023-02-19T11:40:51;10.90;99.90
3678;DHT22;1855;50.934;6.958;2023-02-19T11:43:38;10.90;99.90
3678;DHT22;1855;50.934;6.958;2023-02-19T11:46:14;11.00;99.90
3678;DHT22;1855;50.934;6.958;2023-02-19T11:48:51;10.90;99.90
3678;DHT22;1855;50.934;6.958;2023-02-19T11:51:32;10.70;99.90
3678;DHT22;1855;50.934;6.958;2023-02-19T11:54:13;10.50;99.90
3678;DHT22;1855;50.934;6.958;2023-02-19T11:56:43;10.40;99.90
3678;DHT22;1855;50.934;6.958;2023-02-19T11:59:18;10.30;99.90
3678;DHT22;1855;50.934;6.958;2023-02-19T12:02:18;10.30;99.90
3678;DHT22;1855;50.934;6.958;2023-02-19T12:05:24;10.50;99.90
3678;DHT22;1855;50.934;6.958;2023-02-19T12:08:09;10.70;99.90
3678;DHT22;1855;50.934;6.958;2023-02-19T12:10:52;11.10;99.90
3678;DHT22;1855;50.934;6.958;2023-02-19T12:13:28;11.20;99.90
3678;DHT22;1855;50.934;6.958;2023-02-19T12:16:09;11.40;99.90
3678;DHT22;1855;50.934;6.958;2023-02-19T12:21:50;11.70;99.90
3678;DHT22;1855;50.934;6.958;2023-02-19T12:24:47;11.70;99.90
3678;DHT22;1855;50.934;6.958;2023-02-19T12:27:25;11.80;99.90
3678;DHT22;1855;50.934;6.958;2023-02-19T12:30:16;12.00;99.90
3678;DHT22;1855;50.934;6.958;2023-02-19T12:32:59;12.50;99.90
3678;DHT22;1855;50.934;6.958;2023-02-19T12:35:36;13.10;98.50
3678;DHT22;1855;50.934;6.958;2023-02-19T12:38:21;13.70;96.30
3678;DHT22;1855;50.934;6.958;2023-02-19T12:41:06;14.30;94.60
3678;DHT22;1855;50.934;6.958;2023-02-19T12:43:39;14.60;92.80
3678;DHT22;1855;50.934;6.958;2023-02-19T12:46:10;15.10;91.20
3678;DHT22;1855;50.934;6.958;2023-02-19T12:48:43;15.40;90.10
3678;DHT22;1855;50.934;6.958;2023-02-19T12:51:18;15.00;86.00
3678;DHT22;1855;50.934;6.958;2023-02-19T12:53:51;14.40;89.20
3678;DHT22;1855;50.934;6.958;2023-02-19T12:56:22;14.00;90.00
3678;DHT22;1855;50.934;6.958;2023-02-19T12:58:54;13.60;91.80
3678;DHT22;1855;50.934;6.958;2023-02-19T13:01:25;13.30;92.70
3678;DHT22;1855;50.934;6.958;2023-02-19T13:04:12;12.90;93.60
3678;DHT22;1855;50.934;6.958;2023-02-19T13:06:41;12.50;95.40
3678;DHT22;1855;50.934;6.958;2023-02-19T13:09:14;12.00;97.20
3678;DHT22;1855;50.934;6.958;2023-02-19T13:11:44;11.60;98.70
3678;DHT22;1855;50.934;6.958;2023-02-19T13:14:19;11.40;99.90
3678;DHT22;1855;50.934;6.958;2023-02-19T13:16:51;11.10;99.90
3678;DHT22;1855;50.934;6.958;2023-02-19T13:19:19;10.80;99.90
3678;DHT22;1855;50.934;6.958;2023-02-19T13:21:52;10.60;99.90
3678;DHT22;1855;50.934;6.958;2023-02-19T13:24:40;10.40;99.90
3678;DHT22;1855;50.934;6.958;2023-02-19T13:27:34;10.20;99.90
3678;DHT22;1855;50.934;6.958;2023-02-19T13:30:23;10.10;99.90
3678;DHT22;1855;50.934;6.958;2023-02-19T13:33:00;9.90;99.90
3678;DHT22;1855;50.934;6.958;2023-02-19T13:35:51;9.80;99.90
3678;DHT22;1855;50.934;6.958;2023-02-19T13:38:20;9.70;99.90
3678;DHT22;1855;50.934;6.958;2023-02-19T13:40:54;9.80;99.90
3678;DHT22;1855;50.934;6.958;2023-02-19T13:43:24;9.80;99.90
3678;DHT22;1855;50.934;6.958;2023-02-19T13:45:55;9.80;99.90
3678;DHT22;1855;50.934;6.958;2023-02-19T13:48:28;9.80;99.90
3678;DHT22;1855;50.934;6.958;2023-02-19T13:54:22;9.60;99.90
3678;DHT22;1855;50.934;6.958;2023-02-19T13:57:24;9.50;99.90
3678;DHT22;1855;50.934;6.958;2023-02-19T13:59:52;9.50;99.90
3678;DHT22;1855;50.934;6.958;2023-02-19T14:02:27;9.40;99.90
3678;DHT22;1855;50.934;6.958;2023-02-19T14:04:56;9.40;99.90
3678;DHT22;1855;50.934;6.958;2023-02-19T14:10:54;9.60;99.90
3678;DHT22;1855;50.934;6.958;2023-02-19T14:13:56;9.60;99.90
3678;DHT22;1855;50.934;6.958;2023-02-19T14:16:56;9.60;99.90
3678;DHT22;1855;50.934;6.958;2023-02-19T14:19:50;9.60;99.90
3678;DHT22;1855;50.934;6.958;2023-02-19T14:25:39;9.70;99.90
3678;DHT22;1855;50.934;6.958;2023-02-19T14:28:18;9.80;99.90
3678;DHT22;1855;50.934;6.958;2023-02-19T14:30:50;9.90;99.90
3678;DHT22;1855;50.934;6.958;2023-02-19T14:33:21;10.00;99.90
3678;DHT22;1855;50.934;6.958;2023-02-19T14:35:52;10.10;99.90
3678;DHT22;1855;50.934;6.958;2023-02-19T14:38:22;10.20;99.90
3678;DHT22;1855;50.934;6.958;2023-02-19T14:40:50;10.40;99.90
3678;DHT22;1855;50.934;6.958;2023-02-19T14:43:19;10.40;99.90
3678;DHT22;1855;50.934;6.958;2023-02-19T14:45:51;10.50;99.90
3678;DHT22;1855;50.934;6.958;2023-02-19T14:48:22;10.50;99.90
3678;DHT22;1855;50.934;6.958;2023-02-19T14:50:54;10.40;99.90
3678;DHT22;1855;50.934;6.958;2023-02-19T14:53:22;10.40;99.90
3678;DHT22;1855;50.934;6.958;2023-02-19T14:55:50;10.40;99.90
3678;DHT22;1855;50.934;6.958;2023-02-19T14:58:21;10.30;99.90
3678;DHT22;1855;50.934;6.958;2023-02-19T15:00:51;10.30;99.90
3678;DHT22;1855;50.934;6.958;2023-02-19T15:03:28;10.30;99.90
3678;DHT22;1855;50.934;6.958;2023-02-19T15:05:57;10.30;99.90
3678;DHT22;1855;50.934;6.958;2023-02-19T15:08:30;10.10;99.90
3678;DHT22;1855;50.934;6.958;2023-02-19T15:10:58;10.10;99.90
3678;DHT22;1855;50.934;6.958;2023-02-19T15:13:26;10.10;99.90
3678;DHT22;1855;50.934;6.958;2023-02-19T15:15:55;10.10;99.90
3678;DHT22;1855;50.934;6.958;2023-02-19T15:18:24;10.10;99.90
3678;DHT22;1855;50.934;6.958;2023-02-19T15:20:58;10.10;99.90
3678;DHT22;1855;50.934;6.958;2023-02-19T15:23:27;10.20;99.90
3678;DHT22;1855;50.934;6.958;2023-02-19T15:25:55;10.30;99.90
3678;DHT22;1855;50.934;6.958;2023-02-19T15:28:32;10.30;99.90
3678;DHT22;1855;50.934;6.958;2023-02-19T15:31:05;10.20;99.90
3678;DHT22;1855;50.934;6.958;2023-02-19T15:33:33;10.30;99.90
3678;DHT22;1855;50.934;6.958;2023-02-19T15:36:03;10.20;99.90
3678;DHT22;1855;50.934;6.958;2023-02-19T15:38:31;10.10;99.90
3678;DHT22;1855;50.934;6.958;2023-02-19T15:40:58;10.20;99.90
3678;DHT22;1855;50.934;6.958;2023-02-19T15:43:28;10.20;99.90
3678;DHT22;1855;50.934;6.958;2023-02-19T15:45:57;10.20;99.90
3678;DHT22;1855;50.934;6.958;2023-02-19T15:48:35;10.20;99.90
3678;DHT22;1855;50.934;6.958;2023-02-19T15:51:07;10.20;99.90
3678;DHT22;1855;50.934;6.958;2023-02-19T15:53:37;10.20;99.90
3678;DHT22;1855;50.934;6.958;2023-02-19T15:56:10;10.10;99.90
3678;DHT22;1855;50.934;6.958;2023-02-19T15:58:40;10.10;99.90
3678;DHT22;1855;50.934;6.958;2023-02-19T16:01:15;10.10;99.90
3678;DHT22;1855;50.934;6.958;2023-02-19T16:03:44;10.10;99.90
3678;DHT22;1855;50.934;6.958;2023-02-19T16:06:12;10.10;99.90
3678;DHT22;1855;50.934;6.958;2023-02-19T16:08:41;10.10;99.90
3678;DHT22;1855;50.934;6.958;2023-02-19T16:11:25;10.10;99.90
3678;DHT22;1855;50.934;6.958;2023-02-19T16:14:14;10.10;99.90
3678;DHT22;1855;50.934;6.958;2023-02-19T16:16:41;10.00;99.90
3678;DHT22;1855;50.934;6.958;2023-02-19T16:19:09;10.00;99.90
3678;DHT22;1855;50.934;6.958;2023-02-19T16:21:36;10.10;99.90
3678;DHT22;1855;50.934;6.958;2023-02-19T16:24:05;10.00;99.90
3678;DHT22;1855;50.934;6.958;2023-02-19T16:26:39;10.00;99.90
3678;DHT22;1855;50.934;6.958;2023-02-19T16:29:17;10.00;99.90
3678;DHT22;1855;50.934;6.958;2023-02-19T16:31:47;9.90;99.90
3678;DHT22;1855;50.934;6.958;2023-02-19T16:34:17;10.00;99.90
3678;DHT22;1855;50.934;6.958;2023-02-19T16:36:44;10.00;99.90
3678;DHT22;1855;50.934;6.958;2023-02-19T16:39:19;9.90;99.90
3678;DHT22;1855;50.934;6.958;2023-02-19T16:42:10;9.90;99.90
3678;DHT22;1855;50.934;6.958;2023-02-19T16:44:38;9.90;99.90
3678;DHT22;1855;50.934;6.958;2023-02-19T16:47:09;9.90;99.90
3678;DHT22;1855;50.934;6.958;2023-02-19T16:49:39;9.90;99.90
3678;DHT22;1855;50.934;6.958;2023-02-19T16:52:08;9.90;99.90
3678;DHT22;1855;50.934;6.958;2023-02-19T16:54:36;9.90;99.90